Time;durP1;ratioP1;P1;durP2;ratioP2;P2;SDS_P1;SDS_P2;PMS_P1;PMS_P2;Temp;Humidity;BMP_temperature;BMP_pressure;BME280_temperature;BME280_humidity;BME280_pressure;Samples;Min_cycle;Max_cycle;Signal;HPM_P1;HPM_P2
2022/03/27 00:01:28;;;;;;;4.30;4.10;;;;;;;9.11;84.38;102609.66;6082564;23;20050;-67
2022/03/27 00:03:55;;;;;;;4.38;4.18;;;;;;;9.15;84.33;102627.06;6084358;23;20452;-67
2022/03/27 00:06:21;;;;;;;4.10;3.90;;;;;;;9.08;84.84;102588.78;6083651;23;20036;-67
2022/03/27 00:08:48;;;;;;;6.95;6.65;;;;;;;9.19;84.62;102613.03;6079205;23;20006;-66
2022/03/27 00:11:29;;;;;;;4.55;4.32;;;;;;;9.10;85.37;102612.28;6086190;23;20089;-67
2022/03/27 00:14:03;;;;;;;5.28;4.53;;;;;;;9.10;85.45;102604.44;6080412;23;20069;-66
2022/03/27 00:16:30;;;;;;;4.13;3.92;;;;;;;9.07;85.15;102610.59;6088682;23;20092;-67
2022/03/27 00:18:57;;;;;;;4.30;4.10;;;;;;;7.70;85.56;102407.56;6079004;23;20085;-66
2022/03/27 00:21:24;;;;;;;4.45;4.25;;;;;;;8.95;84.99;102614.25;6060820;23;20049;-67
2022/03/27 00:23:52;;;;;;;5.15;4.95;;;;;;;8.87;84.95;102621.38;6083786;23;20533;-66
2022/03/27 00:26:20;;;;;;;4.40;4.20;;;;;;;8.75;84.61;102619.78;6061797;23;20089;-66
2022/03/27 00:28:48;;;;;;;6.70;6.40;;;;;;;8.49;84.91;102600.94;6077642;23;20029;-66
2022/03/27 00:31:16;;;;;;;4.22;4.00;;;;;;;8.59;85.11;102615.63;6058171;23;20373;-66
2022/03/27 00:33:45;;;;;;;6.13;5.82;;;;;;;8.51;85.65;102618.34;6076365;23;20038;-66
2022/03/27 00:36:13;;;;;;;4.00;3.80;;;;;;;8.44;85.55;102613.22;6086687;23;20436;-66
2022/03/27 00:38:44;;;;;;;5.32;5.13;;;;;;;8.36;84.85;102606.31;6080742;23;20034;-67
2022/03/27 00:41:14;;;;;;;4.32;4.07;;;;;;;7.17;85.48;102425.53;6082836;23;20026;-66
2022/03/27 00:43:41;;;;;;;5.55;5.35;;;;;;;7.86;85.22;102552.84;6085390;23;20087;-66
2022/03/27 00:46:08;;;;;;;4.00;3.80;;;;;;;8.24;86.31;102614.31;6050516;23;20038;-65
2022/03/27 00:48:35;;;;;;;6.57;6.18;;;;;;;8.25;89.13;102623.00;6081697;23;20081;-66
2022/03/27 00:51:04;;;;;;;4.03;3.83;;;;;;;8.26;90.08;102591.63;6090679;23;20480;-66
2022/03/27 00:53:30;;;;;;;3.70;3.60;;;;;;;8.50;91.64;102620.97;6088394;23;20073;-66
2022/03/27 00:55:57;;;;;;;4.28;3.97;;;;;;;8.55;90.63;102608.72;6089430;23;20536;-67
2022/03/27 00:58:23;;;;;;;3.80;3.70;;;;;;;8.49;91.75;102588.72;6102228;23;20077;-66
2022/03/27 01:01:13;;;;;;;5.28;5.07;;;;;;;8.71;90.72;102609.38;6054341;23;20189;-66
2022/03/27 01:03:39;;;;;;;5.43;5.18;;;;;;;8.73;90.21;102613.69;6070388;23;20158;-66
2022/03/27 01:06:18;;;;;;;4.20;4.00;;;;;;;8.67;90.54;102608.53;6075525;23;20010;-66
2022/03/27 01:11:29;;;;;;;4.30;4.10;;;;;;;8.53;89.84;102581.69;6084297;23;20104;-67
2022/03/27 01:13:57;;;;;;;3.60;3.50;;;;;;;8.53;90.26;102600.03;6076546;23;20038;-66
2022/03/27 01:16:32;;;;;;;4.18;3.97;;;;;;;8.44;90.01;102593.16;6086164;23;20042;-67
2022/03/27 01:19:02;;;;;;;4.05;3.85;;;;;;;8.05;89.08;102543.03;6076424;23;20014;-67
2022/03/27 01:21:29;;;;;;;3.65;3.55;;;;;;;8.22;88.84;102582.06;6059091;23;20030;-67
2022/03/27 01:23:56;;;;;;;4.40;4.20;;;;;;;8.10;89.15;102585.69;6083317;23;20014;-66
2022/03/27 01:26:23;;;;;;;4.03;3.83;;;;;;;8.04;88.28;102583.16;6081504;23;20119;-66
2022/03/27 01:28:50;;;;;;;5.50;5.20;;;;;;;7.95;88.12;102589.31;6078013;23;20034;-66
2022/03/27 01:31:18;;;;;;;3.60;3.50;;;;;;;6.68;89.09;102381.66;6080926;23;20120;-67
2022/03/27 01:33:45;;;;;;;5.95;5.65;;;;;;;7.80;88.90;102576.44;6075050;23;20060;-67
2022/03/27 01:36:20;;;;;;;4.50;4.30;;;;;;;7.72;89.33;102596.56;6084486;23;20014;-67
2022/03/27 01:38:46;;;;;;;6.07;5.78;;;;;;;7.65;88.60;102577.44;6085694;23;20022;-67
2022/03/27 01:41:12;;;;;;;4.18;3.97;;;;;;;7.59;90.02;102570.53;6078398;23;20505;-67
2022/03/27 01:43:39;;;;;;;5.75;5.35;;;;;;;6.22;89.16;102353.34;6086325;23;20025;-67
2022/03/27 01:46:06;;;;;;;4.25;4.05;;;;;;;7.43;90.54;102558.50;6079528;23;20344;-67
2022/03/27 01:48:33;;;;;;;4.53;4.32;;;;;;;7.44;89.66;102573.28;6082464;23;20383;-67
2022/03/27 01:51:00;;;;;;;4.70;3.95;;;;;;;7.40;90.88;102587.25;6081380;23;20245;-68
2022/03/27 01:53:27;;;;;;;4.10;3.90;;;;;;;7.37;89.87;102574.22;6082196;23;20030;-66
2022/03/27 01:55:53;;;;;;;4.45;4.25;;;;;;;7.32;90.46;102597.78;6084387;23;20077;-68
2022/03/27 01:58:20;;;;;;;3.80;3.70;;;;;;;5.98;90.46;102356.09;6081053;23;20040;-67
2022/03/27 02:00:47;;;;;;;9.90;9.43;;;;;;;6.61;91.22;102471.28;5948770;23;20355;-66
2022/03/27 02:03:14;;;;;;;3.97;3.78;;;;;;;7.18;91.92;102571.75;6088623;23;20053;-67
2022/03/27 02:05:41;;;;;;;5.13;4.93;;;;;;;5.95;91.74;102379.59;6073237;23;20021;-66
2022/03/27 02:08:09;;;;;;;5.15;4.85;;;;;;;5.91;91.73;102363.94;6088640;23;20100;-66
2022/03/27 02:10:54;;;;;;;4.20;4.00;;;;;;;7.17;93.13;102574.38;6059610;23;20398;-66
2022/03/27 02:13:22;;;;;;;3.90;3.70;;;;;;;7.17;93.33;102577.00;6084990;23;20490;-67
2022/03/27 02:15:50;;;;;;;5.55;5.35;;;;;;;7.22;94.39;102584.78;6086495;23;20020;-66
2022/03/27 02:18:17;;;;;;;4.10;3.90;;;;;;;6.93;95.86;102520.63;6094969;23;20038;-66
2022/03/27 02:20:44;;;;;;;6.32;6.03;;;;;;;6.88;96.25;102511.97;6080893;23;20028;-67
2022/03/27 02:23:12;;;;;;;3.70;3.60;;;;;;;7.12;96.77;102557.91;6083531;23;20022;-67
2022/03/27 02:25:39;;;;;;;5.78;5.47;;;;;;;5.95;96.23;102361.34;6082929;23;20114;-67
2022/03/27 02:28:07;;;;;;;4.00;3.80;;;;;;;5.98;97.11;102366.53;6089769;23;20017;-66
2022/03/27 02:30:34;;;;;;;3.75;3.63;;;;;;;7.25;98.24;102574.31;6094386;23;20185;-67
2022/03/27 02:33:01;;;;;;;4.00;3.80;;;;;;;7.22;98.27;102574.34;6087304;23;20054;-67
2022/03/27 02:35:28;;;;;;;3.80;3.70;;;;;;;7.08;97.71;102559.66;6093176;23;20025;-67
2022/03/27 02:37:54;;;;;;;3.60;3.50;;;;;;;7.13;99.07;102570.91;6085928;23;20380;-66
2022/03/27 02:40:21;;;;;;;3.75;3.60;;;;;;;7.07;98.76;102565.75;6086893;23;20088;-67
2022/03/27 02:42:48;;;;;;;6.13;5.82;;;;;;;7.11;99.87;102569.22;6032663;23;20031;-66
2022/03/27 02:45:14;;;;;;;3.75;3.65;;;;;;;6.18;99.64;102420.28;6056297;23;20025;-67
2022/03/27 02:47:41;;;;;;;5.22;5.03;;;;;;;7.00;99.36;102556.25;6058713;23;20045;-67
2022/03/27 02:50:08;;;;;;;3.55;3.45;;;;;;;7.04;99.93;102565.78;6062147;23;20077;-67
2022/03/27 02:52:34;;;;;;;4.45;4.28;;;;;;;7.01;100.00;102562.31;6041607;23;20105;-67
2022/03/27 02:55:01;;;;;;;4.00;3.80;;;;;;;7.06;100.00;102571.88;6057225;23;20044;-67
2022/03/27 02:57:28;;;;;;;3.70;3.60;;;;;;;7.06;100.00;102565.78;6059946;23;20074;-66
2022/03/27 02:59:54;;;;;;;3.53;3.42;;;;;;;7.03;100.00;102564.03;6028034;23;20534;-67
2022/03/27 03:02:21;;;;;;;3.90;3.72;;;;;;;7.01;100.00;102568.41;6055396;23;20022;-66
2022/03/27 03:04:48;;;;;;;5.93;5.65;;;;;;;7.03;100.00;102584.06;6056816;23;20025;-67
2022/03/27 03:07:14;;;;;;;3.60;3.50;;;;;;;6.06;100.00;102429.03;6075639;23;20090;-67
2022/03/27 03:09:41;;;;;;;5.10;4.90;;;;;;;6.60;100.00;102501.72;6012470;23;20022;-66
2022/03/27 03:12:08;;;;;;;4.35;4.00;;;;;;;6.96;100.00;102570.19;6055521;23;20051;-67
2022/03/27 03:14:35;;;;;;;5.35;5.10;;;;;;;6.92;100.00;102577.19;6063039;23;20048;-67
2022/03/27 03:17:03;;;;;;;4.15;3.95;;;;;;;6.68;100.00;102544.28;6054097;23;20037;-66
2022/03/27 03:19:31;;;;;;;3.40;3.30;;;;;;;6.75;100.00;102556.38;6058711;23;20433;-66
2022/03/27 03:21:58;;;;;;;4.53;4.32;;;;;;;6.87;100.00;102551.97;6059547;23;20142;-67
2022/03/27 03:24:25;;;;;;;4.05;3.85;;;;;;;5.64;100.00;102333.69;6059916;23;20026;-66
2022/03/27 03:26:53;;;;;;;3.80;3.70;;;;;;;6.91;100.00;102546.72;6052621;23;20038;-66
2022/03/27 03:29:21;;;;;;;4.13;3.92;;;;;;;6.99;100.00;102557.97;6056031;23;20609;-67
2022/03/27 03:31:48;;;;;;;5.57;5.35;;;;;;;6.95;100.00;102558.88;6072994;23;20049;-67
2022/03/27 03:34:16;;;;;;;3.55;3.45;;;;;;;6.86;100.00;102537.22;6043465;23;20015;-66
2022/03/27 03:36:43;;;;;;;5.78;5.53;;;;;;;6.36;100.00;102474.91;6049148;23;20055;-66
2022/03/27 03:39:10;;;;;;;3.90;3.75;;;;;;;6.86;100.00;102563.31;6059195;23;20045;-67
2022/03/27 03:41:37;;;;;;;4.95;4.75;;;;;;;6.79;100.00;102559.84;6074745;23;20093;-66
2022/03/27 03:44:21;;;;;;;3.97;3.70;;;;;;;6.62;100.00;102557.34;6090108;23;20100;-67
2022/03/27 03:46:48;;;;;;;5.53;5.32;;;;;;;5.48;100.00;102346.78;6103666;23;20024;-67
2022/03/27 03:49:15;;;;;;;3.40;3.30;;;;;;;6.69;100.00;102546.00;6081126;23;20002;-66
2022/03/27 03:51:42;;;;;;;5.35;5.15;;;;;;;6.82;100.00;102567.69;6086055;23;20731;-67
2022/03/27 03:54:09;;;;;;;4.05;3.85;;;;;;;6.83;100.00;102564.19;6083231;23;20006;-67
2022/03/27 03:56:38;;;;;;;5.43;5.22;;;;;;;6.73;100.00;102550.31;6086044;23;20016;-67
2022/03/27 03:59:05;;;;;;;3.97;3.78;;;;;;;6.74;100.00;102567.72;6088010;23;20169;-67
2022/03/27 04:01:52;;;;;;;4.85;4.55;;;;;;;6.69;100.00;102566.88;6080019;23;20030;-67
2022/03/27 04:04:18;;;;;;;6.35;4.00;;;;;;;6.35;100.00;102514.03;6087477;23;20071;-66
2022/03/27 04:06:45;;;;;;;5.22;5.03;;;;;;;6.68;100.00;102570.38;6080852;23;20096;-67
2022/03/27 04:09:11;;;;;;;3.40;3.30;;;;;;;6.41;100.00;102552.25;6082863;23;20009;-67
2022/03/27 04:11:38;;;;;;;5.80;5.50;;;;;;;6.53;100.00;102567.84;6084536;23;20037;-67
2022/03/27 04:14:04;;;;;;;3.67;3.58;;;;;;;4.99;100.00;102302.72;6089857;23;20018;-66
2022/03/27 04:16:31;;;;;;;3.95;3.75;;;;;;;6.69;100.00;102561.66;6083888;23;20156;-68
2022/03/27 04:18:58;;;;;;;3.80;3.60;;;;;;;6.27;100.00;102481.91;6083933;23;20026;-66
2022/03/27 04:21:24;;;;;;;3.83;3.70;;;;;;;6.72;100.00;102556.44;6083000;23;20014;-68
2022/03/27 04:23:51;;;;;;;3.63;3.53;;;;;;;6.72;100.00;102559.03;6062911;23;20223;-68
2022/03/27 04:26:17;;;;;;;3.60;3.50;;;;;;;5.59;100.00;102371.06;6080584;23;20530;-67
2022/03/27 04:28:45;;;;;;;5.85;5.60;;;;;;;5.38;100.00;102342.50;6080152;23;20093;-66
2022/03/27 04:31:11;;;;;;;3.88;3.67;;;;;;;6.70;100.00;102571.22;6085983;23;20087;-66
2022/03/27 04:33:38;;;;;;;5.28;5.00;;;;;;;6.61;100.00;102575.63;6056756;23;20586;-66
2022/03/27 04:36:05;;;;;;;3.60;3.50;;;;;;;6.32;100.00;102561.00;6082935;23;20024;-66
2022/03/27 04:38:32;;;;;;;4.03;3.83;;;;;;;5.20;100.00;102375.50;6079468;23;20188;-66
2022/03/27 04:40:58;;;;;;;3.70;3.60;;;;;;;6.42;100.00;102583.56;6089154;23;20069;-66
2022/03/27 04:43:26;;;;;;;4.20;4.00;;;;;;;6.38;100.00;102584.44;6092906;23;20092;-66
2022/03/27 04:45:52;;;;;;;4.65;4.45;;;;;;;5.85;100.00;102500.31;6081146;23;20022;-67
2022/03/27 04:48:19;;;;;;;4.22;4.03;;;;;;;6.30;100.00;102591.44;6095697;23;20077;-67
2022/03/27 04:50:45;;;;;;;5.47;5.28;;;;;;;6.32;100.00;102585.31;6082421;23;20029;-66
2022/03/27 04:53:12;;;;;;;4.05;3.85;;;;;;;6.33;100.00;102591.41;6082888;23;20096;-66
2022/03/27 04:55:38;;;;;;;5.13;4.93;;;;;;;4.38;100.00;102288.97;6088906;23;20024;-66
2022/03/27 04:58:08;;;;;;;3.50;3.40;;;;;;;6.21;100.00;102605.34;6087299;23;20021;-67
2022/03/27 05:00:35;;;;;;;4.60;4.40;;;;;;;6.01;100.00;102581.94;6102840;23;20558;-66
2022/03/27 05:03:03;;;;;;;3.40;3.30;;;;;;;5.17;100.00;102445.81;6091167;23;20038;-67
2022/03/27 05:05:30;;;;;;;3.90;3.70;;;;;;;6.24;100.00;102607.97;6087119;23;20021;-66
2022/03/27 05:07:58;;;;;;;3.60;3.50;;;;;;;6.09;100.00;102593.22;6066496;23;20092;-66
2022/03/27 05:10:25;;;;;;;3.60;3.50;;;;;;;6.21;100.00;102610.56;6085512;23;20017;-66
2022/03/27 05:12:52;;;;;;;4.82;4.63;;;;;;;6.14;100.00;102614.06;6079410;23;20088;-66
2022/03/27 05:15:18;;;;;;;4.30;4.10;;;;;;;5.77;100.00;102562.00;6091504;23;20111;-67
2022/03/27 05:17:54;;;;;;;5.07;4.80;;;;;;;6.05;100.00;102614.09;6089137;23;20085;-66
2022/03/27 05:20:22;;;;;;;3.95;3.75;;;;;;;6.04;100.00;102618.44;6083162;23;20045;-66
2022/03/27 05:22:49;;;;;;;5.72;5.45;;;;;;;4.69;100.00;102398.16;6080072;23;20499;-67
2022/03/27 05:25:16;;;;;;;4.72;3.70;;;;;;;6.08;100.00;102619.31;6082449;23;20086;-66
2022/03/27 05:27:50;;;;;;;5.00;4.80;;;;;;;6.04;100.00;102618.44;6097115;23;20288;-66
2022/03/27 05:30:24;;;;;;;4.95;4.55;;;;;;;4.98;100.00;102423.28;6081897;23;20024;-66
2022/03/27 05:32:52;;;;;;;5.15;4.95;;;;;;;6.21;100.00;102620.13;6081978;23;20112;-66
2022/03/27 05:35:18;;;;;;;3.55;3.45;;;;;;;6.20;100.00;102624.47;6086073;23;20026;-65
2022/03/27 05:37:47;;;;;;;5.05;4.85;;;;;;;5.99;100.00;102575.88;6056850;23;20089;-67
2022/03/27 05:40:17;;;;;;;3.58;3.47;;;;;;;6.35;100.00;102626.16;6084988;23;20041;-67
2022/03/27 05:42:44;;;;;;;5.72;5.45;;;;;;;6.27;100.00;102612.28;6057190;23;20155;-66
2022/03/27 05:45:11;;;;;;;3.90;3.70;;;;;;;6.35;100.00;102628.75;6055827;23;20075;-68
2022/03/27 05:47:38;;;;;;;5.32;5.13;;;;;;;6.36;100.00;102615.72;6061484;23;20051;-65
2022/03/27 05:50:05;;;;;;;3.53;3.42;;;;;;;6.32;100.00;102616.63;6058748;23;20085;-66
2022/03/27 05:52:31;;;;;;;4.03;3.72;;;;;;;6.29;100.00;102598.34;6046725;23;20093;-65
2022/03/27 05:54:58;;;;;;;4.10;3.90;;;;;;;6.51;100.00;102634.78;6064953;23;20515;-66
2022/03/27 05:57:25;;;;;;;3.92;3.60;;;;;;;6.32;100.00;102595.75;6038451;23;20023;-66
2022/03/27 05:59:51;;;;;;;3.83;3.63;;;;;;;6.23;100.00;102567.09;6018546;23;20450;-67
2022/03/27 06:02:18;;;;;;;4.13;3.92;;;;;;;6.57;100.00;102611.28;6036165;23;20025;-66
2022/03/27 06:04:45;;;;;;;7.03;6.68;;;;;;;6.90;100.00;102649.41;6053451;23;20031;-66
2022/03/27 06:07:12;;;;;;;3.95;3.75;;;;;;;6.97;100.00;102645.00;6070747;23;20028;-67
2022/03/27 06:09:39;;;;;;;5.47;5.28;;;;;;;7.04;100.00;102638.03;6060583;23;20083;-67
2022/03/27 06:12:05;;;;;;;3.95;3.78;;;;;;;7.02;100.00;102630.19;6060969;23;20034;-67
2022/03/27 06:14:32;;;;;;;4.13;3.92;;;;;;;5.53;100.00;102360.66;6052558;23;20021;-66
2022/03/27 06:16:59;;;;;;;3.88;3.70;;;;;;;7.14;100.00;102622.28;6048961;23;20046;-67
2022/03/27 06:19:26;;;;;;;3.92;3.72;;;;;;;6.23;100.00;102472.38;6050927;23;20045;-67
2022/03/27 06:21:52;;;;;;;4.10;3.90;;;;;;;7.57;100.00;102663.72;6051187;23;20800;-67
2022/03/27 06:24:19;;;;;;;3.60;3.50;;;;;;;6.45;100.00;102481.81;6051565;23;20048;-67
2022/03/27 06:26:45;;;;;;;5.32;5.13;;;;;;;7.57;100.00;102661.13;6048847;23;20097;-67
2022/03/27 06:29:14;;;;;;;3.58;3.47;;;;;;;7.88;100.00;102673.09;6055599;23;20010;-68
2022/03/27 06:31:41;;;;;;;4.07;3.88;;;;;;;7.96;100.00;102672.13;6054267;23;20443;-67
2022/03/27 06:34:07;;;;;;;4.78;4.57;;;;;;;8.08;100.00;102665.91;6049774;23;20033;-67
2022/03/27 06:36:34;;;;;;;4.85;4.65;;;;;;;8.13;100.00;102668.47;6035859;23;20023;-66
2022/03/27 06:39:03;;;;;;;4.30;4.10;;;;;;;8.19;100.00;102666.66;6055379;23;20030;-66
2022/03/27 06:41:30;;;;;;;3.70;3.60;;;;;;;8.26;100.00;102657.00;6070795;23;20029;-66
2022/03/27 06:43:56;;;;;;;4.03;3.83;;;;;;;8.34;100.00;102664.78;6089283;23;20096;-66
2022/03/27 06:46:23;;;;;;;3.72;3.63;;;;;;;7.41;100.00;102471.44;6077226;23;20089;-67
2022/03/27 06:48:49;;;;;;;5.30;5.10;;;;;;;8.51;100.00;102669.81;6075981;23;20268;-66
2022/03/27 06:51:17;;;;;;;5.50;5.20;;;;;;;8.34;100.00;102639.47;6072288;23;20081;-67
2022/03/27 06:53:45;;;;;;;5.75;5.45;;;;;;;8.52;100.00;102661.06;6079228;23;20026;-67
2022/03/27 06:56:11;;;;;;;3.90;3.70;;;;;;;8.53;100.00;102662.81;6083349;23;20031;-66
2022/03/27 06:58:37;;;;;;;4.45;4.25;;;;;;;8.63;100.00;102660.97;6079239;23;20155;-65
2022/03/27 07:03:49;;;;;;;5.20;4.88;;;;;;;7.89;100.00;102497.91;6079974;23;20029;-67
2022/03/27 07:06:19;;;;;;;4.10;3.90;;;;;;;7.99;100.00;102457.69;6051540;23;20026;-66
2022/03/27 07:08:47;;;;;;;6.15;5.85;;;;;;;8.76;100.00;102587.50;6077477;23;20037;-67
2022/03/27 07:11:14;;;;;;;4.63;4.35;;;;;;;8.99;100.00;102629.03;6089011;23;20053;-67
2022/03/27 07:13:41;;;;;;;6.07;5.78;;;;;;;9.29;100.00;102655.66;6076507;23;20052;-67
2022/03/27 07:16:09;;;;;;;4.40;4.20;;;;;;;8.35;100.00;102478.13;6059492;23;20018;-67
2022/03/27 07:18:35;;;;;;;5.25;5.03;;;;;;;8.30;100.00;102459.00;6079606;23;20025;-66
2022/03/27 07:21:05;;;;;;;4.22;4.03;;;;;;;9.71;100.00;102652.38;6059293;23;20010;-67
2022/03/27 07:23:32;;;;;;;4.20;4.00;;;;;;;9.71;100.00;102662.88;6078964;23;20243;-66
2022/03/27 07:25:59;;;;;;;4.50;4.20;;;;;;;9.54;100.00;102622.09;6081562;23;20013;-67
2022/03/27 07:28:28;;;;;;;4.93;4.53;;;;;;;8.44;100.00;102483.28;6083538;23;20017;-67
2022/03/27 07:30:55;;;;;;;4.53;4.32;;;;;;;9.50;100.00;102654.47;6082463;23;20375;-67
2022/03/27 07:33:21;;;;;;;4.18;3.97;;;;;;;9.44;100.00;102662.44;6084796;23;20109;-66
2022/03/27 07:35:48;;;;;;;5.90;5.60;;;;;;;8.46;100.00;102491.06;6053762;23;20028;-67
2022/03/27 07:38:16;;;;;;;4.50;4.30;;;;;;;9.40;100.00;102637.16;6079911;23;20432;-66
2022/03/27 07:40:43;;;;;;;7.60;6.43;;;;;;;9.17;100.00;102614.81;6079573;23;20030;-67
2022/03/27 07:43:09;;;;;;;4.30;4.10;;;;;;;9.54;100.00;102660.50;6088842;23;20125;-66
2022/03/27 07:45:36;;;;;;;5.07;4.88;;;;;;;9.42;100.00;102664.22;6076347;23;20062;-66
2022/03/27 07:48:03;;;;;;;4.70;4.50;;;;;;;8.45;100.00;102492.84;6081882;23;20321;-67
2022/03/27 07:50:30;;;;;;;4.50;4.30;;;;;;;8.73;100.00;102544.78;6051998;23;20026;-67
2022/03/27 07:53:01;;;;;;;4.53;4.32;;;;;;;9.92;100.00;102674.72;6076364;23;20401;-66
2022/03/27 07:55:28;;;;;;;3.83;3.72;;;;;;;9.23;100.00;102513.44;6049476;23;20018;-67
2022/03/27 07:57:56;;;;;;;4.18;3.97;;;;;;;10.25;100.00;102662.75;6074663;23;20439;-67
2022/03/27 08:00:23;;;;;;;4.25;4.05;;;;;;;10.54;100.00;102664.84;6087115;23;20030;-67
2022/03/27 08:02:51;;;;;;;5.60;5.38;;;;;;;10.42;99.72;102622.22;6047825;23;20033;-67
2022/03/27 08:05:18;;;;;;;5.15;4.68;;;;;;;10.62;97.25;102654.16;6080298;23;20387;-66
2022/03/27 08:07:45;;;;;;;6.03;5.72;;;;;;;10.11;96.99;102622.81;6061079;23;20064;-67
2022/03/27 08:10:14;;;;;;;4.28;4.05;;;;;;;10.40;97.82;102645.88;6081178;23;20021;-67
2022/03/27 08:12:40;;;;;;;6.70;6.28;;;;;;;10.03;96.47;102577.50;6075654;23;20022;-67
2022/03/27 08:15:07;;;;;;;4.80;4.60;;;;;;;10.57;97.10;102650.78;6083714;23;20293;-67
2022/03/27 08:17:34;;;;;;;5.43;5.15;;;;;;;10.69;97.50;102652.28;6074481;23;20056;-66
2022/03/27 08:20:10;;;;;;;5.78;5.47;;;;;;;10.72;95.39;102645.22;6162091;22;20485;-67
2022/03/27 08:22:36;;;;;;;6.32;6.03;;;;;;;10.83;94.72;102642.34;6105241;23;20021;-67
2022/03/27 08:25:03;;;;;;;5.38;4.95;;;;;;;10.62;94.24;102646.28;6093173;23;20368;-67
2022/03/27 08:27:33;;;;;;;4.82;4.63;;;;;;;10.49;95.61;102650.09;6075672;23;20395;-67
2022/03/27 08:30:00;;;;;;;4.50;4.30;;;;;;;10.50;96.61;102644.81;6099663;23;20013;-68
2022/03/27 08:32:26;;;;;;;4.45;4.25;;;;;;;10.57;96.61;102651.66;6107791;23;20349;-67
2022/03/27 08:34:53;;;;;;;4.60;4.40;;;;;;;10.63;95.57;102648.03;6104180;23;20092;-67
2022/03/27 08:37:19;;;;;;;4.40;4.20;;;;;;;10.62;94.26;102648.06;6101835;23;20005;-67
2022/03/27 08:39:46;;;;;;;4.68;4.47;;;;;;;10.47;94.90;102644.00;6107745;23;20254;-67
2022/03/27 08:42:16;;;;;;;4.88;4.53;;;;;;;10.25;96.57;102628.66;6073851;23;20325;-67
2022/03/27 08:44:42;;;;;;;4.60;4.38;;;;;;;10.44;97.52;102644.91;6086722;23;20033;-67
2022/03/27 08:47:17;;;;;;;4.93;4.72;;;;;;;10.60;96.79;102636.72;6101302;23;20441;-67
2022/03/27 08:49:47;;;;;;;6.70;6.38;;;;;;;10.67;96.06;102639.19;6114281;23;20044;-67
2022/03/27 08:52:17;;;;;;;4.40;4.20;;;;;;;10.99;95.36;102640.25;6138943;23;20021;-67
2022/03/27 08:55:01;;;;;;;6.43;6.13;;;;;;;11.02;93.03;102606.00;6123139;23;20111;-67
2022/03/27 08:57:49;;;;;;;5.07;4.82;;;;;;;11.36;90.78;102640.22;6141595;23;20033;-68
2022/03/27 09:00:19;;;;;;;4.82;4.63;;;;;;;11.45;89.87;102628.63;6104088;23;20022;-67
2022/03/27 09:02:46;;;;;;;5.90;5.60;;;;;;;11.70;90.57;102642.03;6135372;23;20467;-67
2022/03/27 09:05:13;;;;;;;4.60;4.40;;;;;;;12.05;89.94;102613.94;6110794;23;20069;-67
2022/03/27 09:07:39;;;;;;;6.78;6.30;;;;;;;12.53;84.90;102641.56;6131535;23;20019;-67
2022/03/27 09:10:08;;;;;;;5.15;4.75;;;;;;;11.42;82.88;102463.06;6101670;23;20395;-67
2022/03/27 09:12:35;;;;;;;4.93;4.72;;;;;;;12.57;82.71;102646.69;6135422;23;20512;-68
2022/03/27 09:15:07;;;;;;;5.72;5.43;;;;;;;12.47;81.80;102650.50;6106579;23;20018;-68
2022/03/27 09:17:54;;;;;;;5.78;5.53;;;;;;;12.19;81.93;102624.09;6127725;23;20025;-68
2022/03/27 09:20:47;;;;;;;4.60;4.40;;;;;;;12.21;83.04;102651.25;6101565;23;20029;-67
2022/03/27 09:23:22;;;;;;;5.40;5.13;;;;;;;12.04;83.69;102629.78;6074050;23;20073;-69
2022/03/27 09:26:00;;;;;;;6.57;6.18;;;;;;;12.37;82.37;102654.31;6097507;23;20257;-68
2022/03/27 09:28:33;;;;;;;5.82;5.20;;;;;;;12.57;82.55;102653.75;6105792;23;20028;-67
2022/03/27 09:31:06;;;;;;;;;;;;;;;12.82;80.97;102655.63;6082121;23;20159;-67
2022/03/27 09:33:37;;;;;;;4.97;4.78;;;;;;;13.06;80.32;102648.75;6059584;23;20614;-68
2022/03/27 09:36:10;;;;;;;5.00;4.80;;;;;;;13.15;78.72;102636.16;6056665;23;20030;-67
2022/03/27 09:38:38;;;;;;;6.67;6.37;;;;;;;13.18;77.85;102640.44;6079172;23;20390;-66
2022/03/27 09:41:07;;;;;;;6.78;5.30;;;;;;;13.00;78.61;102651.56;6092002;23;20026;-67
2022/03/27 09:43:34;;;;;;;5.45;5.05;;;;;;;13.10;77.98;102619.59;6091833;23;20021;-67
2022/03/27 09:46:02;;;;;;;5.05;4.85;;;;;;;13.08;78.70;102642.50;6095984;23;20040;-67
2022/03/27 09:48:29;;;;;;;5.72;5.43;;;;;;;13.17;78.34;102641.38;6091928;23;20028;-67
2022/03/27 09:50:59;;;;;;;5.18;4.97;;;;;;;13.03;76.80;102626.00;6053369;23;20030;-67
2022/03/27 09:53:30;;;;;;;4.85;4.65;;;;;;;13.45;76.60;102636.09;6085086;23;20235;-67
2022/03/27 09:55:59;;;;;;;5.40;5.10;;;;;;;13.43;76.38;102640.56;6109828;23;20025;-68
2022/03/27 09:58:36;;;;;;;5.15;4.85;;;;;;;13.56;75.39;102635.72;6073301;23;20337;-67
2022/03/27 10:01:25;;;;;;;4.97;4.75;;;;;;;13.73;73.98;102619.31;6119752;23;20032;-67
2022/03/27 10:04:08;;;;;;;6.45;6.05;;;;;;;13.88;74.11;102623.19;6107175;23;20483;-68
2022/03/27 10:06:37;;;;;;;5.05;4.85;;;;;;;13.95;74.57;102596.53;6108123;23;20021;-67
2022/03/27 10:09:06;;;;;;;6.28;5.70;;;;;;;13.86;74.20;102619.75;6113811;23;20021;-68
2022/03/27 10:11:34;;;;;;;7.38;6.68;;;;;;;13.90;73.88;102592.34;6110323;23;20169;-68
2022/03/27 10:14:03;;;;;;;4.90;4.70;;;;;;;14.14;73.30;102615.19;6106201;23;20025;-68
2022/03/27 10:16:34;;;;;;;5.55;5.22;;;;;;;14.14;72.47;102609.06;6099731;23;20032;-68
2022/03/27 10:19:25;;;;;;;5.75;5.32;;;;;;;14.15;72.79;102611.66;6126227;23;20080;-67
2022/03/27 10:21:54;;;;;;;7.63;7.00;;;;;;;14.41;72.54;102608.94;6114128;23;20036;-68
2022/03/27 10:24:26;;;;;;;4.80;4.57;;;;;;;14.33;71.41;102586.34;6145122;23;20013;-68
2022/03/27 10:26:55;;;;;;;5.57;5.28;;;;;;;14.74;70.06;102605.03;6141591;23;20264;-68
2022/03/27 10:29:23;;;;;;;5.63;5.03;;;;;;;14.51;70.25;102561.00;6108999;23;20157;-68
2022/03/27 10:31:49;;;;;;;6.32;6.03;;;;;;;14.93;68.89;102594.63;6135724;23;20276;-68
2022/03/27 10:34:20;;;;;;;6.03;5.63;;;;;;;14.46;70.25;102602.56;6120737;23;20013;-67
2022/03/27 10:36:50;;;;;;;6.72;6.30;;;;;;;14.72;70.23;102595.47;6143188;23;20110;-67
2022/03/27 10:39:36;;;;;;;5.53;5.22;;;;;;;14.95;70.12;102590.13;6138938;23;20019;-67
2022/03/27 10:42:15;;;;;;;6.22;5.82;;;;;;;15.03;68.73;102589.78;6108697;23;20175;-68
2022/03/27 10:44:52;;;;;;;7.38;6.97;;;;;;;15.04;68.38;102580.09;6126955;23;20199;-68
2022/03/27 10:47:26;;;;;;;5.45;4.97;;;;;;;15.13;68.14;102585.88;6139256;23;20051;-67
2022/03/27 10:50:01;;;;;;;6.18;5.78;;;;;;;15.24;68.12;102587.22;6138701;23;20310;-67
2022/03/27 10:52:50;;;;;;;6.07;5.55;;;;;;;15.30;66.22;102579.88;6148969;23;20013;-67
2022/03/27 10:55:17;;;;;;;5.55;5.05;;;;;;;15.56;67.04;102577.91;6108180;23;20013;-67
2022/03/27 10:57:49;;;;;;;8.15;7.45;;;;;;;15.06;67.29;102578.25;6138325;23;20025;-67
2022/03/27 11:00:37;;;;;;;5.18;4.97;;;;;;;15.09;66.70;102567.53;6144546;23;20024;-69
2022/03/27 11:03:04;;;;;;;6.38;5.93;;;;;;;15.27;66.78;102568.56;6148909;23;20079;-67
2022/03/27 11:05:31;;;;;;;5.97;5.57;;;;;;;15.16;66.29;102567.22;6145168;23;20048;-68
2022/03/27 11:08:16;;;;;;;5.18;4.97;;;;;;;15.06;66.15;102571.16;6116341;23;20027;-67
2022/03/27 11:10:45;;;;;;;6.88;6.57;;;;;;;15.11;66.18;102582.44;6098001;23;20029;-67
2022/03/27 11:13:27;;;;;;;5.90;5.50;;;;;;;15.09;66.02;102565.75;6138637;23;20440;-67
2022/03/27 11:16:06;;;;;;;6.35;5.95;;;;;;;15.25;65.00;102565.09;6140772;23;20897;-67
2022/03/27 11:18:48;;;;;;;5.78;5.38;;;;;;;15.34;65.47;102562.09;6120289;23;20054;-67
2022/03/27 11:21:27;;;;;;;7.07;6.57;;;;;;;15.16;66.50;102559.28;6142644;23;20021;-67
2022/03/27 11:24:16;;;;;;;5.93;5.63;;;;;;;15.01;67.24;102551.13;6140807;23;20359;-67
2022/03/27 11:26:43;;;;;;;6.72;6.30;;;;;;;15.07;65.58;102548.22;6091902;23;20063;-67
2022/03/27 11:29:24;;;;;;;5.35;5.05;;;;;;;15.24;65.74;102542.25;6145340;23;20013;-67
2022/03/27 11:32:09;;;;;;;6.45;6.00;;;;;;;15.30;65.79;102544.63;6105557;23;20165;-67
2022/03/27 11:34:37;;;;;;;6.05;5.70;;;;;;;15.48;64.15;102517.38;6112159;23;20513;-67
2022/03/27 11:37:25;;;;;;;5.22;5.00;;;;;;;15.74;64.31;102533.94;6139466;23;20332;-67
2022/03/27 11:39:53;;;;;;;6.82;6.18;;;;;;;15.77;64.05;102531.13;6101866;23;20009;-67
2022/03/27 11:42:32;;;;;;;5.72;5.43;;;;;;;15.75;63.08;102514.44;6135403;23;20032;-67